Time;durP1;ratioP1;P1;durP2;ratioP2;P2;SDS_P1;SDS_P2;PMS_P1;PMS_P2;Temp;Humidity;BMP_temperature;BMP_pressure;BME280_temperature;BME280_humidity;BME280_pressure;Samples;Min_cycle;Max_cycle;Signal;HPM_P1;HPM_P2
2023/01/08 00:01:23;;;;;;;58.58;27.75;;;3.40;99.90;;;;;;5227539;28;20037;-78
2023/01/08 00:03:54;;;;;;;42.08;25.92;;;3.30;99.90;;;;;;5227602;28;20100;-78
2023/01/08 00:06:25;;;;;;;37.88;24.10;;;3.50;99.90;;;;;;5227245;28;20111;-79
2023/01/08 00:08:56;;;;;;;51.33;26.67;;;3.30;99.90;;;;;;5227450;28;20025;-78
2023/01/08 00:11:27;;;;;;;38.88;24.27;;;3.50;99.90;;;;;;5227098;28;20037;-78
2023/01/08 00:13:58;;;;;;;30.08;21.83;;;3.50;99.90;;;;;;5230002;28;20017;-78
2023/01/08 00:16:29;;;;;;;29.65;20.10;;;3.50;99.90;;;;;;5231480;28;20451;-77
2023/01/08 00:19:00;;;;;;;36.47;20.17;;;3.20;99.90;;;;;;5231605;28;20052;-79
2023/01/08 00:21:32;;;;;;;38.60;24.38;;;3.20;99.90;;;;;;5231172;28;20484;-79
2023/01/08 00:24:04;;;;;;;36.78;25.27;;;3.30;99.90;;;;;;5231484;28;20468;-78
2023/01/08 00:26:35;;;;;;;39.72;23.33;;;3.40;99.90;;;;;;5231524;28;20029;-78
2023/01/08 00:29:06;;;;;;;35.08;23.33;;;3.10;99.90;;;;;;5231348;28;20419;-78
2023/01/08 00:31:36;;;;;;;27.80;21.77;;;2.90;99.90;;;;;;5230105;28;20021;-78
2023/01/08 00:34:07;;;;;;;29.20;22.00;;;3.00;99.90;;;;;;5231352;28;20025;-79
2023/01/08 00:36:38;;;;;;;37.55;24.58;;;3.20;99.90;;;;;;5231271;28;20025;-78
2023/01/08 00:39:09;;;;;;;43.53;24.60;;;3.30;99.90;;;;;;5229665;28;20045;-78
2023/01/08 00:41:43;;;;;;;38.97;24.55;;;3.00;99.90;;;;;;5230796;28;20052;-79
2023/01/08 00:44:13;;;;;;;32.13;20.98;;;2.90;99.90;;;;;;5231139;28;20017;-79
2023/01/08 00:46:44;;;;;;;26.60;18.92;;;2.90;99.90;;;;;;5230805;28;20029;-78
2023/01/08 00:49:15;;;;;;;24.75;18.80;;;3.00;99.90;;;;;;5230741;28;20484;-78
2023/01/08 00:51:46;;;;;;;27.05;20.48;;;3.40;99.90;;;;;;5230997;28;20036;-79
2023/01/08 00:54:17;;;;;;;24.88;17.52;;;3.20;99.90;;;;;;5230901;28;20112;-79
2023/01/08 00:56:48;;;;;;;24.40;17.73;;;2.90;99.90;;;;;;5230980;28;20032;-79
2023/01/08 00:59:18;;;;;;;24.90;19.23;;;3.30;99.90;;;;;;5229511;28;20117;-78
2023/01/08 01:01:51;;;;;;;27.30;18.63;;;3.30;99.90;;;;;;5229452;28;20045;-78
2023/01/08 01:04:24;;;;;;;26.17;20.38;;;3.20;99.90;;;;;;5230890;28;20028;-77
2023/01/08 01:06:54;;;;;;;24.42;18.95;;;3.20;99.90;;;;;;5230609;28;20052;-79
2023/01/08 01:09:25;;;;;;;22.73;17.05;;;3.40;99.90;;;;;;5230354;28;20061;-79
2023/01/08 01:11:56;;;;;;;23.98;18.52;;;3.50;99.90;;;;;;5230505;28;20072;-78
2023/01/08 01:14:27;;;;;;;23.23;15.98;;;3.30;99.90;;;;;;5230746;28;20465;-78
2023/01/08 01:16:58;;;;;;;24.25;17.67;;;3.30;99.90;;;;;;5245888;28;20021;-78
2023/01/08 01:19:29;;;;;;;22.88;17.45;;;3.40;99.90;;;;;;5230493;28;20059;-78
2023/01/08 01:22:00;;;;;;;23.23;18.17;;;3.30;99.90;;;;;;5230419;28;20033;-78
2023/01/08 01:24:31;;;;;;;24.27;17.83;;;3.50;99.90;;;;;;5228211;28;20142;-78
2023/01/08 01:27:02;;;;;;;20.75;14.85;;;3.50;99.90;;;;;;5230517;28;20060;-78
2023/01/08 01:29:33;;;;;;;18.98;14.40;;;3.40;99.90;;;;;;5230243;28;20413;-77
2023/01/08 01:32:05;;;;;;;19.65;15.65;;;3.70;99.90;;;;;;5228626;28;20511;-77
2023/01/08 01:34:35;;;;;;;21.83;17.38;;;3.60;99.90;;;;;;5230222;28;20423;-78
2023/01/08 01:37:10;;;;;;;21.85;16.77;;;3.50;99.90;;;;;;5230123;28;20078;-77
2023/01/08 01:39:47;;;;;;;23.17;16.55;;;3.40;99.90;;;;;;5228584;28;20516;-77
2023/01/08 01:45:16;;;;;;;18.38;16.23;;;3.50;99.90;;;;;;5230334;28;20025;-78
2023/01/08 01:48:10;;;;;;;20.20;16.67;;;3.40;99.90;;;;;;5228688;28;20063;-78
2023/01/08 01:50:49;;;;;;;18.08;15.75;;;3.40;99.90;;;;;;5229948;28;20025;-79
2023/01/08 01:53:34;;;;;;;19.75;15.68;;;3.50;99.90;;;;;;5229849;28;20025;-78
2023/01/08 01:56:05;;;;;;;19.52;15.82;;;3.50;99.90;;;;;;5229815;28;20104;-78
2023/01/08 01:58:36;;;;;;;23.95;14.05;;;3.50;99.90;;;;;;5229747;28;20021;-77
2023/01/08 02:01:08;;;;;;;21.65;15.80;;;3.60;99.90;;;;;;5229499;28;20072;-78
2023/01/08 02:03:39;;;;;;;18.63;13.15;;;3.50;99.90;;;;;;5228399;28;20025;-78
2023/01/08 02:06:19;;;;;;;18.38;14.52;;;3.50;99.90;;;;;;5229612;28;20078;-78
2023/01/08 02:09:08;;;;;;;20.58;15.30;;;3.90;99.90;;;;;;5229540;28;20097;-79
2023/01/08 02:12:15;;;;;;;19.80;16.60;;;3.60;99.90;;;;;;5228493;28;20505;-78
2023/01/08 02:14:53;;;;;;;19.85;16.13;;;3.50;99.90;;;;;;5229288;28;20392;-79
2023/01/08 02:18:03;;;;;;;17.92;15.93;;;3.70;99.90;;;;;;5229441;28;20029;-78
2023/01/08 02:20:53;;;;;;;20.20;15.95;;;3.80;99.90;;;;;;5229291;28;20368;-78
2023/01/08 02:23:36;;;;;;;19.75;17.27;;;3.80;99.90;;;;;;5229558;28;20029;-78
2023/01/08 02:26:30;;;;;;;21.27;14.45;;;3.70;99.90;;;;;;5227931;28;20473;-78
2023/01/08 02:29:21;;;;;;;22.85;14.50;;;3.80;99.90;;;;;;5227785;28;20128;-78
2023/01/08 02:31:52;;;;;;;22.58;17.58;;;3.90;99.90;;;;;;5227443;28;20082;-78
2023/01/08 02:34:39;;;;;;;24.10;17.85;;;3.80;99.90;;;;;;5227578;28;20119;-77
2023/01/08 02:37:12;;;;;;;24.60;18.25;;;3.80;99.90;;;;;;5228883;28;20018;-76
2023/01/08 02:40:06;;;;;;;26.30;18.77;;;3.90;99.90;;;;;;5228178;28;20053;-76
2023/01/08 02:42:55;;;;;;;23.98;18.55;;;3.90;99.90;;;;;;5228625;28;20067;-76
2023/01/08 02:45:56;;;;;;;24.40;18.65;;;3.90;99.90;;;;;;5228722;28;20028;-76
2023/01/08 02:48:43;;;;;;;34.25;20.88;;;3.90;99.90;;;;;;5228428;28;20043;-79
2023/01/08 02:51:27;;;;;;;31.60;20.80;;;4.00;99.90;;;;;;5227433;28;20056;-78
2023/01/08 02:54:14;;;;;;;34.17;21.77;;;3.90;99.90;;;;;;5229230;28;20036;-78
2023/01/08 02:56:50;;;;;;;33.83;19.85;;;4.00;99.90;;;;;;5227438;28;20112;-78
2023/01/08 02:59:22;;;;;;;29.98;20.52;;;4.20;99.90;;;;;;5228773;28;20114;-78
2023/01/08 03:01:53;;;;;;;29.90;18.42;;;4.10;99.90;;;;;;5228877;28;20028;-77
2023/01/08 03:04:26;;;;;;;32.00;20.52;;;4.10;99.90;;;;;;5228371;28;20025;-78
2023/01/08 03:06:57;;;;;;;31.77;20.42;;;4.00;99.90;;;;;;5228428;28;20071;-78
2023/01/08 03:09:28;;;;;;;29.77;20.15;;;4.10;99.90;;;;;;5226989;28;20032;-78
2023/01/08 03:12:08;;;;;;;32.13;21.55;;;4.20;99.90;;;;;;5228030;28;20037;-79
2023/01/08 03:15:01;;;;;;;34.08;21.63;;;4.00;99.90;;;;;;5228404;28;20028;-78
2023/01/08 03:17:47;;;;;;;36.85;19.98;;;4.10;99.90;;;;;;5228474;28;20025;-78
2023/01/08 03:20:22;;;;;;;32.85;21.27;;;4.10;99.90;;;;;;5228286;28;20104;-78
2023/01/08 03:22:55;;;;;;;33.47;22.52;;;4.10;99.90;;;;;;5228021;28;20029;-77
2023/01/08 03:25:28;;;;;;;34.05;20.80;;;4.10;99.90;;;;;;5227834;28;20029;-78
2023/01/08 03:28:04;;;;;;;39.67;25.45;;;4.30;99.90;;;;;;5226670;28;20029;-78
2023/01/08 03:30:38;;;;;;;40.90;25.50;;;4.10;99.90;;;;;;5228008;28;20029;-78
2023/01/08 03:33:11;;;;;;;41.80;27.10;;;4.20;99.90;;;;;;5226381;28;20029;-78
2023/01/08 03:35:46;;;;;;;39.03;25.02;;;4.20;99.90;;;;;;5227889;28;20079;-78
2023/01/08 03:38:24;;;;;;;36.88;23.25;;;4.20;99.90;;;;;;5227950;28;20036;-78
2023/01/08 03:41:00;;;;;;;44.35;25.15;;;4.30;99.90;;;;;;5226454;28;20044;-79
2023/01/08 03:43:31;;;;;;;41.33;26.58;;;4.30;99.90;;;;;;5227937;28;20036;-78
2023/01/08 03:46:08;;;;;;;36.03;23.08;;;4.30;99.90;;;;;;5226151;28;20029;-78
2023/01/08 03:48:40;;;;;;;40.60;26.58;;;4.30;99.90;;;;;;5227430;28;20021;-78
2023/01/08 03:51:11;;;;;;;40.05;26.27;;;4.40;99.90;;;;;;5227632;28;20534;-78
2023/01/08 03:53:42;;;;;;;37.30;25.90;;;4.50;99.90;;;;;;5227610;28;20025;-78
2023/01/08 03:56:14;;;;;;;43.00;26.45;;;4.50;99.90;;;;;;5227597;28;20100;-78
2023/01/08 03:58:46;;;;;;;43.40;26.60;;;4.40;99.90;;;;;;5227550;28;20052;-78
2023/01/08 04:01:16;;;;;;;46.55;30.60;;;4.50;99.90;;;;;;5227825;28;20037;-78
2023/01/08 04:03:47;;;;;;;41.05;32.33;;;4.40;99.90;;;;;;5227357;28;20071;-78
2023/01/08 04:06:18;;;;;;;41.95;29.83;;;4.60;99.90;;;;;;5226291;28;20040;-78
2023/01/08 04:08:49;;;;;;;36.05;27.17;;;4.50;99.90;;;;;;5226071;28;20026;-78
2023/01/08 04:11:20;;;;;;;39.92;29.15;;;4.60;99.90;;;;;;5227198;28;20033;-78
2023/01/08 04:13:51;;;;;;;41.95;29.02;;;4.40;99.90;;;;;;5226165;28;20124;-78
2023/01/08 04:16:22;;;;;;;41.22;25.20;;;4.40;99.90;;;;;;5227546;28;20033;-77
2023/01/08 04:18:55;;;;;;;36.95;27.20;;;4.40;99.90;;;;;;5227507;28;20472;-77
2023/01/08 04:21:26;;;;;;;35.05;26.38;;;4.60;99.90;;;;;;5227358;28;20037;-78
2023/01/08 04:23:57;;;;;;;38.45;28.65;;;4.60;99.90;;;;;;5242694;28;20048;-78
2023/01/08 04:26:28;;;;;;;40.60;27.85;;;4.50;99.90;;;;;;5227371;28;20074;-78
2023/01/08 04:29:02;;;;;;;42.53;26.70;;;4.60;99.90;;;;;;5227336;28;20093;-78
2023/01/08 04:31:33;;;;;;;42.08;29.88;;;4.70;99.90;;;;;;5227513;28;20029;-77
2023/01/08 04:34:04;;;;;;;39.83;27.75;;;4.70;99.90;;;;;;5227299;28;20036;-78
2023/01/08 04:36:35;;;;;;;34.65;22.75;;;4.60;99.90;;;;;;5225929;28;20510;-77
2023/01/08 04:39:06;;;;;;;36.92;25.35;;;4.20;99.90;;;;;;5225661;28;20052;-78
2023/01/08 04:41:37;;;;;;;36.67;24.92;;;4.30;99.90;;;;;;5227310;28;20051;-78
2023/01/08 04:44:08;;;;;;;33.40;23.85;;;4.20;99.90;;;;;;5227328;28;20132;-78
2023/01/08 04:46:39;;;;;;;29.88;21.88;;;4.00;99.90;;;;;;5225970;28;20435;-78
2023/01/08 04:49:13;;;;;;;29.75;23.90;;;3.90;99.90;;;;;;5226917;28;20033;-78
2023/01/08 04:51:44;;;;;;;31.85;23.60;;;3.90;99.90;;;;;;5227069;28;20048;-78
2023/01/08 04:54:15;;;;;;;30.30;23.58;;;4.00;99.90;;;;;;5225710;28;20075;-78
2023/01/08 04:56:48;;;;;;;30.58;23.98;;;4.00;99.90;;;;;;5227148;28;20028;-76
2023/01/08 04:59:19;;;;;;;32.60;27.02;;;4.00;99.90;;;;;;5227576;28;20061;-78
2023/01/08 05:01:50;;;;;;;33.33;27.25;;;3.90;99.90;;;;;;5230726;28;20067;-78
2023/01/08 05:04:21;;;;;;;34.55;27.40;;;4.00;99.90;;;;;;5230798;28;20104;-78
2023/01/08 05:06:51;;;;;;;37.15;31.45;;;4.00;99.90;;;;;;5230491;28;20474;-78
2023/01/08 05:09:22;;;;;;;34.40;29.02;;;3.80;99.90;;;;;;5230845;28;20070;-77
2023/01/08 05:11:53;;;;;;;32.47;26.35;;;3.80;99.90;;;;;;5229357;28;20057;-77
2023/01/08 05:14:24;;;;;;;34.20;25.00;;;3.80;99.90;;;;;;5230334;28;20033;-78
2023/01/08 05:16:55;;;;;;;35.72;27.67;;;3.90;99.90;;;;;;5230491;28;20025;-78
2023/01/08 05:19:26;;;;;;;34.80;27.48;;;3.60;99.90;;;;;;5229178;28;20025;-78
2023/01/08 05:21:57;;;;;;;34.20;27.17;;;3.60;99.90;;;;;;5229108;28;20122;-79
2023/01/08 05:24:27;;;;;;;32.65;28.80;;;3.70;99.90;;;;;;5228997;28;20477;-79
2023/01/08 05:26:58;;;;;;;32.63;27.33;;;3.60;99.90;;;;;;5229142;28;20033;-79
2023/01/08 05:29:29;;;;;;;39.95;31.70;;;3.70;99.90;;;;;;5228948;28;20058;-78
2023/01/08 05:32:00;;;;;;;42.65;32.10;;;4.00;99.90;;;;;;5230235;28;20112;-78
2023/01/08 05:34:31;;;;;;;38.75;30.17;;;3.80;99.90;;;;;;5230181;28;20021;-78
2023/01/08 05:37:02;;;;;;;39.80;30.13;;;4.00;99.90;;;;;;5230079;28;20029;-78
2023/01/08 05:39:32;;;;;;;32.25;23.92;;;3.70;99.90;;;;;;5229816;28;20041;-77
2023/01/08 05:42:04;;;;;;;36.10;27.42;;;3.80;99.90;;;;;;5229944;28;20615;-78
2023/01/08 05:44:34;;;;;;;31.95;26.10;;;3.80;99.90;;;;;;5230078;28;20092;-78
2023/01/08 05:47:05;;;;;;;36.20;27.90;;;3.90;99.90;;;;;;5229859;28;20113;-78
2023/01/08 05:49:36;;;;;;;37.42;30.30;;;3.90;99.90;;;;;;5229936;28;20032;-77
2023/01/08 05:52:07;;;;;;;43.65;30.73;;;3.80;99.90;;;;;;5229803;28;20100;-78
2023/01/08 05:54:38;;;;;;;37.70;27.60;;;3.60;99.90;;;;;;5228504;28;20064;-78
2023/01/08 05:57:09;;;;;;;36.38;30.20;;;3.90;99.90;;;;;;5229482;28;20025;-77
2023/01/08 05:59:39;;;;;;;43.63;31.65;;;3.80;99.90;;;;;;5229960;28;20830;-78
2023/01/08 06:02:11;;;;;;;51.25;33.78;;;3.70;99.90;;;;;;5248273;28;20040;-78
2023/01/08 06:04:42;;;;;;;39.30;29.77;;;3.70;99.90;;;;;;5250347;28;20024;-78
2023/01/08 06:07:13;;;;;;;34.40;25.98;;;3.70;99.90;;;;;;5248954;28;20024;-78
2023/01/08 06:09:44;;;;;;;38.33;28.40;;;3.90;99.90;;;;;;5250039;28;20106;-77
2023/01/08 06:12:15;;;;;;;32.03;26.15;;;4.00;99.90;;;;;;5248562;28;20060;-78
2023/01/08 06:14:46;;;;;;;42.88;28.92;;;3.90;99.90;;;;;;5250090;28;20542;-78
2023/01/08 06:17:17;;;;;;;53.78;33.42;;;3.90;99.90;;;;;;5248799;28;20028;-78
2023/01/08 06:19:48;;;;;;;51.85;34.78;;;3.80;99.90;;;;;;5250661;28;20492;-77
2023/01/08 06:22:18;;;;;;;41.33;28.77;;;3.70;99.90;;;;;;5250206;28;20052;-78
2023/01/08 06:24:49;;;;;;;37.35;27.67;;;3.90;99.90;;;;;;5249907;28;20112;-78
2023/01/08 06:27:20;;;;;;;36.15;25.35;;;4.10;99.90;;;;;;5250022;28;20424;-78
2023/01/08 06:29:51;;;;;;;33.30;26.13;;;4.00;99.90;;;;;;5249951;28;20029;-77
2023/01/08 06:32:22;;;;;;;29.60;25.35;;;3.90;99.90;;;;;;5265351;28;20119;-77
2023/01/08 06:34:53;;;;;;;38.15;27.35;;;4.30;99.90;;;;;;5248401;28;20033;-77
2023/01/08 06:37:24;;;;;;;38.33;28.92;;;4.10;99.90;;;;;;5265238;28;20020;-77
2023/01/08 06:39:54;;;;;;;50.08;34.92;;;4.10;99.90;;;;;;5249350;28;20101;-77
2023/01/08 06:42:25;;;;;;;68.18;41.58;;;4.20;99.90;;;;;;5248025;28;20050;-77
2023/01/08 06:44:56;;;;;;;67.50;42.25;;;4.40;99.90;;;;;;5247887;28;20021;-77
2023/01/08 06:47:27;;;;;;;78.30;47.08;;;4.10;99.90;;;;;;5249352;28;20025;-77
2023/01/08 06:49:58;;;;;;;73.65;48.78;;;4.10;99.90;;;;;;5249399;28;20082;-77
2023/01/08 06:52:29;;;;;;;39.17;29.73;;;4.20;99.90;;;;;;5249149;28;20074;-78
2023/01/08 06:54:59;;;;;;;41.17;29.10;;;4.30;99.90;;;;;;5249103;28;20070;-77
2023/01/08 06:57:31;;;;;;;44.50;35.50;;;4.30;99.90;;;;;;5249304;28;20027;-78
2023/01/08 07:00:01;;;;;;;58.35;41.90;;;4.30;99.90;;;;;;5247772;28;20495;-77
2023/01/08 07:02:32;;;;;;;58.92;43.90;;;4.50;99.90;;;;;;5248956;28;20036;-77
2023/01/08 07:05:03;;;;;;;55.60;41.90;;;4.30;99.90;;;;;;5248983;28;20039;-78
2023/01/08 07:07:34;;;;;;;50.75;41.92;;;4.40;99.90;;;;;;5249080;28;20033;-78
2023/01/08 07:10:05;;;;;;;53.00;41.33;;;4.40;99.90;;;;;;5248793;28;20031;-78
2023/01/08 07:12:36;;;;;;;55.58;40.55;;;4.60;99.90;;;;;;5248976;28;20029;-78
2023/01/08 07:15:08;;;;;;;61.47;42.97;;;4.50;99.90;;;;;;5247687;28;20464;-80
2023/01/08 07:17:38;;;;;;;49.63;38.50;;;4.60;99.90;;;;;;5249062;28;20494;-80
2023/01/08 07:20:09;;;;;;;47.33;35.33;;;4.90;99.90;;;;;;5248753;28;20021;-77
2023/01/08 07:22:40;;;;;;;52.40;34.63;;;4.90;99.90;;;;;;5246405;28;20029;-80
2023/01/08 07:25:11;;;;;;;54.17;36.88;;;4.90;99.90;;;;;;5247118;28;20075;-81
2023/01/08 07:27:42;;;;;;;54.47;35.75;;;5.00;99.90;;;;;;5247307;28;20064;-80
2023/01/08 07:30:13;;;;;;;51.33;37.55;;;5.00;99.90;;;;;;5247402;28;20025;-77
2023/01/08 07:32:44;;;;;;;46.47;36.13;;;5.00;99.90;;;;;;5264216;28;20491;-78
2023/01/08 07:35:15;;;;;;;47.83;34.53;;;5.10;99.90;;;;;;5248492;28;20111;-78
2023/01/08 07:37:46;;;;;;;51.78;34.70;;;5.40;99.90;;;;;;5247274;28;20024;-78
2023/01/08 07:40:17;;;;;;;56.40;37.45;;;5.40;99.90;;;;;;5248192;28;20079;-78
2023/01/08 07:42:57;;;;;;;72.68;48.08;;;5.40;99.90;;;;;;5247542;28;20078;-77
2023/01/08 07:45:29;;;;;;;92.85;55.55;;;5.50;99.90;;;;;;5264166;28;20021;-77
2023/01/08 07:48:00;;;;;;;77.85;49.72;;;5.50;99.90;;;;;;5248503;28;20085;-77
2023/01/08 07:50:31;;;;;;;55.42;37.75;;;5.70;99.90;;;;;;5248525;28;20016;-80
2023/01/08 07:53:02;;;;;;;62.13;38.30;;;5.80;99.90;;;;;;5248320;28;20027;-77
2023/01/08 07:55:33;;;;;;;80.32;52.50;;;5.90;99.90;;;;;;5247196;28;20107;-81
2023/01/08 07:58:13;;;;;;;68.32;48.45;;;5.90;99.90;;;;;;5248321;28;20024;-77
2023/01/08 08:00:44;;;;;;;64.78;43.58;;;5.90;99.90;;;;;;5248229;28;20388;-80
2023/01/08 08:03:15;;;;;;;54.50;36.95;;;5.90;99.90;;;;;;5248327;28;20031;-77
2023/01/08 08:05:46;;;;;;;56.58;40.65;;;6.00;99.90;;;;;;5248333;28;20021;-77
2023/01/08 08:08:17;;;;;;;56.97;36.45;;;6.20;99.90;;;;;;5246945;28;20071;-77
2023/01/08 08:10:48;;;;;;;53.78;36.67;;;6.30;99.90;;;;;;5247086;28;20031;-77
2023/01/08 08:13:19;;;;;;;55.00;37.83;;;6.50;99.90;;;;;;5248289;28;20024;-82
2023/01/08 08:15:50;;;;;;;52.67;38.63;;;6.60;99.90;;;;;;5248501;28;20029;-77
2023/01/08 08:18:21;;;;;;;56.83;39.28;;;6.70;99.90;;;;;;5263856;28;20123;-77
2023/01/08 08:20:52;;;;;;;51.00;35.45;;;7.00;99.90;;;;;;5248177;28;20032;-83
2023/01/08 08:23:23;;;;;;;53.63;36.40;;;7.00;99.90;;;;;;5248128;28;20058;-80
2023/01/08 08:25:54;;;;;;;69.82;46.72;;;7.10;99.90;;;;;;5246623;28;20032;-80
2023/01/08 08:28:25;;;;;;;67.93;47.85;;;7.20;99.90;;;;;;5248256;28;20571;-79
2023/01/08 08:30:56;;;;;;;53.80;37.95;;;7.30;99.90;;;;;;5246633;28;20105;-84
2023/01/08 08:33:27;;;;;;;55.63;36.95;;;7.30;99.90;;;;;;5248696;28;20463;-84
2023/01/08 08:35:58;;;;;;;59.53;41.25;;;7.30;99.90;;;;;;5252069;28;20047;-82
2023/01/08 08:38:29;;;;;;;57.40;38.97;;;7.40;99.90;;;;;;5251479;28;20119;-82
2023/01/08 08:41:00;;;;;;;54.58;38.85;;;7.60;99.90;;;;;;5250606;28;20458;-78
2023/01/08 08:43:31;;;;;;;57.83;39.92;;;7.70;99.90;;;;;;5250694;28;20051;-84
2023/01/08 08:46:02;;;;;;;55.42;37.97;;;7.90;99.90;;;;;;5237167;28;20056;-80
2023/01/08 08:48:32;;;;;;;52.67;36.40;;;8.00;99.90;;;;;;5230739;28;20032;-78
2023/01/08 08:51:03;;;;;;;56.45;36.03;;;8.00;99.90;;;;;;5230974;28;20021;-77
2023/01/08 08:53:34;;;;;;;52.10;36.00;;;8.30;99.90;;;;;;5231222;28;20066;-77
2023/01/08 08:56:05;;;;;;;53.45;34.88;;;8.40;99.90;;;;;;5229716;28;20029;-78
2023/01/08 08:58:36;;;;;;;50.33;34.88;;;8.50;99.90;;;;;;5230956;28;20021;-84
2023/01/08 09:01:07;;;;;;;48.47;33.38;;;8.70;99.90;;;;;;5230971;28;20040;-77
2023/01/08 09:03:38;;;;;;;58.95;40.33;;;8.70;99.90;;;;;;5230842;28;20108;-77
2023/01/08 09:06:14;;;;;;;59.97;42.10;;;8.70;99.90;;;;;;5235056;28;20116;-78
2023/01/08 09:08:44;;;;;;;52.55;34.20;;;8.80;99.90;;;;;;5272438;28;20446;-78
2023/01/08 09:11:15;;;;;;;38.78;29.83;;;9.00;99.90;;;;;;5271942;28;20055;-78
2023/01/08 09:13:46;;;;;;;40.05;27.75;;;9.20;99.90;;;;;;5272222;28;20414;-78
2023/01/08 09:16:17;;;;;;;33.70;25.60;;;9.40;99.90;;;;;;5270926;28;20408;-85
2023/01/08 09:18:48;;;;;;;32.75;24.70;;;9.60;99.90;;;;;;5272225;28;20387;-78
2023/01/08 09:21:19;;;;;;;24.05;18.20;;;9.80;99.90;;;;;;5271824;28;20085;-78
2023/01/08 09:23:50;;;;;;;22.50;16.05;;;9.90;99.90;;;;;;5270643;28;20017;-87
2023/01/08 09:26:21;;;;;;;29.40;20.08;;;9.90;99.90;;;;;;5250868;28;20097;-79
2023/01/08 09:28:51;;;;;;;25.25;16.63;;;9.80;99.90;;;;;;5250470;28;20031;-85
2023/01/08 09:31:23;;;;;;;21.20;14.82;;;9.80;99.90;;;;;;5249224;28;20031;-83
2023/01/08 09:33:57;;;;;;;25.20;15.30;;;9.80;99.90;;;;;;5248875;28;20027;-79
2023/01/08 09:36:28;;;;;;;22.10;15.98;;;9.70;99.90;;;;;;5249127;28;20039;-81
2023/01/08 09:39:00;;;;;;;20.95;15.40;;;9.80;99.90;;;;;;5243908;28;20064;-78
2023/01/08 09:41:34;;;;;;;22.27;16.08;;;9.80;99.90;;;;;;5229575;28;20051;-81
2023/01/08 09:44:16;;;;;;;19.92;13.15;;;10.50;99.90;;;;;;5229788;28;20048;-79
2023/01/08 09:46:58;;;;;;;21.35;14.27;;;11.00;99.90;;;;;;5227834;28;20021;-78
2023/01/08 09:49:42;;;;;;;17.67;12.23;;;11.10;99.90;;;;;;5229940;28;20028;-77
2023/01/08 09:52:14;;;;;;;18.38;11.65;;;10.90;99.90;;;;;;5228470;28;20040;-81
2023/01/08 09:54:45;;;;;;;20.10;13.15;;;11.00;99.90;;;;;;5228331;28;20112;-82
2023/01/08 09:57:19;;;;;;;17.67;12.63;;;11.00;99.90;;;;;;5242599;28;20162;-82
2023/01/08 09:59:50;;;;;;;17.02;11.20;;;11.20;99.90;;;;;;5250461;28;20020;-80
2023/01/08 10:02:25;;;;;;;20.00;12.10;;;11.00;99.90;;;;;;5250428;28;20040;-87
2023/01/08 10:04:59;;;;;;;14.32;10.30;;;10.90;99.90;;;;;;5250341;28;20055;-86
2023/01/08 10:07:30;;;;;;;15.05;8.27;;;10.80;99.90;;;;;;5250143;28;20055;-86
2023/01/08 10:10:01;;;;;;;14.02;8.48;;;11.20;99.90;;;;;;5250242;28;20021;-77
2023/01/08 10:12:33;;;;;;;10.25;7.00;;;11.10;99.90;;;;;;5248874;28;20047;-78
2023/01/08 10:15:10;;;;;;;9.80;6.88;;;11.00;99.90;;;;;;5249748;28;20053;-85
2023/01/08 10:17:44;;;;;;;10.48;7.65;;;10.80;99.90;;;;;;5248737;28;20075;-89
2023/01/08 10:20:24;;;;;;;14.93;8.82;;;10.70;99.90;;;;;;5243654;28;20161;-79
2023/01/08 10:22:58;;;;;;;11.98;8.50;;;10.80;99.90;;;;;;5235959;28;20463;-78
2023/01/08 10:25:29;;;;;;;11.43;8.00;;;10.90;99.90;;;;;;5244150;28;20055;-79
2023/01/08 10:28:01;;;;;;;8.50;6.40;;;11.50;99.90;;;;;;5228946;28;20025;-82
2023/01/08 10:30:36;;;;;;;10.63;6.70;;;12.10;99.90;;;;;;5229182;28;20035;-77
2023/01/08 10:33:23;;;;;;;7.55;5.40;;;12.50;99.90;;;;;;5227539;28;20028;-78
2023/01/08 10:36:01;;;;;;;8.35;6.20;;;12.80;99.90;;;;;;5228893;28;20392;-77
2023/01/08 10:38:47;;;;;;;11.82;7.53;;;13.00;99.90;;;;;;5228565;28;20052;-78
2023/01/08 10:41:18;;;;;;;10.38;6.97;;;12.70;99.90;;;;;;5228858;28;20040;-88
2023/01/08 10:44:03;;;;;;;11.02;6.70;;;12.00;99.90;;;;;;5229196;28;20104;-77
2023/01/08 10:46:47;;;;;;;10.88;7.25;;;11.50;99.90;;;;;;5228144;28;20029;-78
2023/01/08 10:49:35;;;;;;;11.75;7.20;;;11.40;99.90;;;;;;5228830;28;20929;-89
2023/01/08 10:52:33;;;;;;;8.90;6.07;;;11.50;99.90;;;;;;5228921;28;20071;-87
2023/01/08 10:55:15;;;;;;;8.63;6.20;;;12.20;99.90;;;;;;5228836;28;20472;-79
2023/01/08 10:58:01;;;;;;;12.05;7.13;;;12.50;99.90;;;;;;5226460;28;20032;-89
2023/01/08 11:00:34;;;;;;;11.57;6.70;;;11.90;99.90;;;;;;5228467;28;20041;-90
2023/01/08 11:03:07;;;;;;;14.10;6.72;;;11.50;99.90;;;;;;5227110;28;20116;-78
2023/01/08 11:05:41;;;;;;;8.73;6.30;;;11.60;99.90;;;;;;5228278;28;20024;-86
2023/01/08 11:08:18;;;;;;;8.43;5.72;;;11.60;99.90;;;;;;5228298;28;20021;-80
2023/01/08 11:11:00;;;;;;;10.38;6.82;;;11.90;99.90;;;;;;5227033;28;20025;-81
2023/01/08 11:13:31;;;;;;;35.05;7.60;;;12.10;99.90;;;;;;5226721;28;20044;-70
2023/01/08 11:16:09;;;;;;;26.55;24.95;;;16.00;99.90;;;;;;5227399;28;20021;-68
2023/01/08 11:18:50;;;;;;;16.10;14.98;;;15.00;99.90;;;;;;5039400;28;20066;-68
2023/01/08 11:21:30;;;;;;;17.77;16.38;;;12.30;99.90;;;;;;5242118;28;20524;-69
2023/01/08 11:24:04;;;;;;;16.58;15.40;;;11.60;99.90;;;;;;5236646;28;20020;-70
2023/01/08 11:26:39;;;;;;;15.77;14.40;;;11.40;99.90;;;;;;5235821;28;20027;-69
2023/01/08 11:29:39;;;;;;;17.75;16.50;;;12.10;99.90;;;;;;5238173;28;20103;-67
2023/01/08 11:32:43;;;;;;;16.88;15.68;;;12.70;99.90;;;;;;4849930;28;20053;-72
2023/01/08 11:35:19;;;;;;;729.58;612.60;;;13.00;99.90;;;;;;5123502;28;20115;-72
2023/01/08 11:37:58;;;;;;;10.32;9.52;;;13.00;99.90;;;;;;5097169;28;20040;-81
2023/01/08 11:40:39;;;;;;;11.80;10.70;;;13.30;99.90;;;;;;4896853;28;20502;-79
2023/01/08 11:43:47;;;;;;;12.52;11.63;;;13.60;99.90;;;;;;5187959;28;20043;-81
2023/01/08 11:46:29;;;;;;;10.05;9.18;;;13.00;99.90;;;;;;5227718;28;20029;-82
2023/01/08 11:49:26;;;;;;;12.80;11.95;;;13.80;99.90;;;;;;5246096;28;20016;-81
2023/01/08 11:52:45;;;;;;;8.88;7.80;;;13.60;99.90;;;;;;5247088;28;20078;-80
2023/01/08 11:55:41;;;;;;;11.57;10.68;;;13.60;99.90;;;;;;5204061;28;20026;-72
2023/01/08 11:58:33;;;;;;;11.02;10.23;;;13.80;99.90;;;;;;5204027;28;20037;-78
2023/01/08 12:01:26;;;;;;;10.15;9.35;;;13.80;99.90;;;;;;5224122;28;20041;-79
2023/01/08 12:04:29;;;;;;;11.48;10.57;;;13.60;99.90;;;;;;5225875;28;20124;-77
2023/01/08 12:07:15;;;;;;;15.63;14.40;;;12.50;99.90;;;;;;5215022;28;20043;-80
2023/01/08 12:10:13;;;;;;;17.75;16.35;;;12.20;99.90;;;;;;5229652;28;20056;-77
2023/01/08 12:12:52;;;;;;;14.13;12.93;;;12.20;99.90;;;;;;5242245;28;20032;-78
2023/01/08 12:15:48;;;;;;;15.93;14.57;;;12.30;99.90;;;;;;5251139;28;20016;-80
2023/01/08 12:18:28;;;;;;;13.93;12.73;;;12.30;99.90;;;;;;5250894;28;20101;-81
2023/01/08 12:21:17;;;;;;;17.23;15.93;;;12.80;99.90;;;;;;5251233;28;20408;-81
2023/01/08 12:24:11;;;;;;;14.20;13.00;;;12.80;99.90;;;;;;5250866;28;20017;-81
2023/01/08 12:27:12;;;;;;;30.60;28.52;;;13.30;99.90;;;;;;5240183;28;20281;-81
2023/01/08 12:30:20;;;;;;;31.73;29.73;;;13.30;99.90;;;;;;5250919;28;20024;-81
2023/01/08 12:33:19;;;;;;;42.40;39.70;;;12.60;99.90;;;;;;5249458;28;20506;-81
2023/01/08 12:35:53;;;;;;;11.35;10.38;;;13.10;99.90;;;;;;5251011;28;20036;-80
2023/01/08 12:38:31;;;;;;;13.75;12.70;;;13.40;99.90;;;;;;5250524;28;20037;-82
2023/01/08 12:41:11;;;;;;;16.63;15.35;;;13.50;99.90;;;;;;5250951;28;20773;-82
2023/01/08 12:44:02;;;;;;;24.52;22.67;;;13.90;99.90;;;;;;5250661;28;20029;-78
2023/01/08 12:46:35;;;;;;;11.93;10.93;;;14.20;99.90;;;;;;5250504;28;20036;-80
2023/01/08 12:49:09;;;;;;;18.02;16.33;;;14.90;99.90;;;;;;5250500;28;20377;-81
2023/01/08 12:51:48;;;;;;;35.50;33.15;;;14.60;99.90;;;;;;5250275;28;20115;-81
2023/01/08 12:54:53;;;;;;;21.88;20.48;;;14.60;99.90;;;;;;5250469;28;20472;-82
2023/01/08 12:57:41;;;;;;;30.00;28.17;;;14.60;99.90;;;;;;5248818;28;20031;-82
2023/01/08 13:00:57;;;;;;;28.35;26.63;;;14.00;99.90;;;;;;5250270;28;20027;-82
2023/01/08 13:03:30;;;;;;;39.70;37.08;;;13.80;99.90;;;;;;5238219;28;20071;-82
2023/01/08 13:06:21;;;;;;;39.97;37.47;;;14.10;99.90;;;;;;5248721;28;20115;-81
2023/01/08 13:08:54;;;;;;;27.05;25.00;;;17.00;99.90;;;;;;5248467;28;20035;-81
2023/01/08 13:11:27;;;;;;;12.93;11.85;;;19.30;99.90;;;;;;5249807;28;20029;-83
2023/01/08 13:14:07;;;;;;;6.47;5.88;;;18.90;99.90;;;;;;5248295;28;20037;-69
2023/01/08 13:16:39;;;;;;;;;;;17.70;99.90;;;;;;5249841;28;20028;-72
2023/01/08 13:19:27;;;;;;;8.07;6.53;;;22.60;92.40;;;;;;5237590;28;19905;-61
2023/01/08 13:21:59;;;;;;;6.93;5.95;;;23.80;81.60;;;;;;5227673;28;20443;-71